CPX964 Details

Departure: Joint Base McGuire Dix Lakehurst (KWRI)
Arrival: Chicago/Rockford International Airport (KRFD) at N/A
Route: MXE4 AIR APE J178 FWA HOBAR J60 JOT V171 RFD
Notes: EMPTY | NON-REVENUE REPOSITIONING LEG


Current Weather Information
KWRI 231256Z AUTO 28007KT 10SM CLR 14/11 A2996 RMK AO2 SLP145 T01390112
KRFD 231254Z 19005KT 10SM SCT250 02/M01 A2992 RMK AO2 SLP135 T00221006